sensor_id;sensor_type;location;lat;lon;timestamp;P1;durP1;ratioP1;P2;durP2;ratioP2
36747;SDS011;22716;51.556;5.080;2023-05-07T00:01:14;10.87;;;8.03;;
36747;SDS011;22716;51.556;5.080;2023-05-07T00:03:43;9.67;;;7.97;;
36747;SDS011;22716;51.556;5.080;2023-05-07T00:06:12;9.13;;;7.73;;
36747;SDS011;22716;51.556;5.080;2023-05-07T00:08:41;9.27;;;8.23;;
36747;SDS011;22716;51.556;5.080;2023-05-07T00:11:09;8.90;;;7.83;;
36747;SDS011;22716;51.556;5.080;2023-05-07T00:13:39;9.57;;;7.40;;
36747;SDS011;22716;51.556;5.080;2023-05-07T00:16:13;26.80;;;8.73;;
36747;SDS011;22716;51.556;5.080;2023-05-07T00:18:42;8.83;;;7.93;;
36747;SDS011;22716;51.556;5.080;2023-05-07T00:21:11;8.40;;;7.50;;
36747;SDS011;22716;51.556;5.080;2023-05-07T00:23:40;10.17;;;7.03;;
36747;SDS011;22716;51.556;5.080;2023-05-07T00:26:08;7.10;;;6.40;;
36747;SDS011;22716;51.556;5.080;2023-05-07T00:28:38;7.30;;;6.33;;
36747;SDS011;22716;51.556;5.080;2023-05-07T00:31:09;7.37;;;6.57;;
36747;SDS011;22716;51.556;5.080;2023-05-07T00:33:38;8.63;;;6.20;;
36747;SDS011;22716;51.556;5.080;2023-05-07T00:36:08;9.00;;;8.10;;
36747;SDS011;22716;51.556;5.080;2023-05-07T00:38:37;9.90;;;7.73;;
36747;SDS011;22716;51.556;5.080;2023-05-07T00:41:07;7.37;;;6.57;;
36747;SDS011;22716;51.556;5.080;2023-05-07T00:43:35;8.53;;;6.93;;
36747;SDS011;22716;51.556;5.080;2023-05-07T00:46:04;7.00;;;6.40;;
36747;SDS011;22716;51.556;5.080;2023-05-07T00:48:36;9.23;;;6.80;;
36747;SDS011;22716;51.556;5.080;2023-05-07T00:51:05;9.83;;;6.17;;
36747;SDS011;22716;51.556;5.080;2023-05-07T00:53:34;19.37;;;7.33;;
36747;SDS011;22716;51.556;5.080;2023-05-07T00:56:04;7.07;;;6.37;;
36747;SDS011;22716;51.556;5.080;2023-05-07T00:58:35;9.23;;;6.67;;
36747;SDS011;22716;51.556;5.080;2023-05-07T01:01:04;9.10;;;5.83;;
36747;SDS011;22716;51.556;5.080;2023-05-07T01:03:36;8.73;;;6.70;;
36747;SDS011;22716;51.556;5.080;2023-05-07T01:06:06;7.20;;;6.50;;
36747;SDS011;22716;51.556;5.080;2023-05-07T01:08:38;7.73;;;6.43;;
36747;SDS011;22716;51.556;5.080;2023-05-07T01:11:09;9.07;;;6.63;;
36747;SDS011;22716;51.556;5.080;2023-05-07T01:13:39;7.90;;;6.73;;
36747;SDS011;22716;51.556;5.080;2023-05-07T01:16:09;7.87;;;6.20;;
36747;SDS011;22716;51.556;5.080;2023-05-07T01:18:41;7.83;;;6.33;;
36747;SDS011;22716;51.556;5.080;2023-05-07T01:21:12;8.70;;;6.63;;
36747;SDS011;22716;51.556;5.080;2023-05-07T01:23:47;9.67;;;6.70;;
36747;SDS011;22716;51.556;5.080;2023-05-07T01:26:17;7.50;;;6.57;;
36747;SDS011;22716;51.556;5.080;2023-05-07T01:28:45;8.03;;;6.70;;
36747;SDS011;22716;51.556;5.080;2023-05-07T01:31:16;7.37;;;6.67;;
36747;SDS011;22716;51.556;5.080;2023-05-07T01:33:46;8.43;;;6.90;;
36747;SDS011;22716;51.556;5.080;2023-05-07T01:36:18;8.53;;;6.90;;
36747;SDS011;22716;51.556;5.080;2023-05-07T01:38:54;11.33;;;7.27;;
36747;SDS011;22716;51.556;5.080;2023-05-07T01:41:25;8.43;;;7.60;;
36747;SDS011;22716;51.556;5.080;2023-05-07T01:43:54;8.30;;;7.37;;
36747;SDS011;22716;51.556;5.080;2023-05-07T01:46:26;11.23;;;8.27;;
36747;SDS011;22716;51.556;5.080;2023-05-07T01:48:55;9.20;;;8.30;;
36747;SDS011;22716;51.556;5.080;2023-05-07T01:51:26;8.70;;;6.80;;
36747;SDS011;22716;51.556;5.080;2023-05-07T01:53:58;10.13;;;7.23;;
36747;SDS011;22716;51.556;5.080;2023-05-07T01:56:27;9.57;;;7.47;;
36747;SDS011;22716;51.556;5.080;2023-05-07T01:58:55;9.33;;;7.87;;
36747;SDS011;22716;51.556;5.080;2023-05-07T02:01:24;10.57;;;7.90;;
36747;SDS011;22716;51.556;5.080;2023-05-07T02:03:53;14.17;;;9.07;;
36747;SDS011;22716;51.556;5.080;2023-05-07T02:06:22;11.13;;;7.20;;
36747;SDS011;22716;51.556;5.080;2023-05-07T02:08:52;9.37;;;7.50;;
36747;SDS011;22716;51.556;5.080;2023-05-07T02:11:24;8.33;;;6.87;;
36747;SDS011;22716;51.556;5.080;2023-05-07T02:13:53;7.30;;;6.50;;
36747;SDS011;22716;51.556;5.080;2023-05-07T02:16:22;10.00;;;5.70;;
36747;SDS011;22716;51.556;5.080;2023-05-07T02:18:51;9.93;;;6.90;;
36747;SDS011;22716;51.556;5.080;2023-05-07T02:21:22;10.00;;;8.40;;
36747;SDS011;22716;51.556;5.080;2023-05-07T02:23:51;11.10;;;7.60;;
36747;SDS011;22716;51.556;5.080;2023-05-07T02:26:20;8.00;;;6.63;;
36747;SDS011;22716;51.556;5.080;2023-05-07T02:28:52;8.33;;;7.30;;
36747;SDS011;22716;51.556;5.080;2023-05-07T02:31:22;12.10;;;7.40;;
36747;SDS011;22716;51.556;5.080;2023-05-07T02:33:50;8.50;;;7.67;;
36747;SDS011;22716;51.556;5.080;2023-05-07T02:36:20;11.17;;;7.60;;
36747;SDS011;22716;51.556;5.080;2023-05-07T02:38:48;9.87;;;8.40;;
36747;SDS011;22716;51.556;5.080;2023-05-07T02:41:17;10.97;;;7.97;;
36747;SDS011;22716;51.556;5.080;2023-05-07T02:43:49;8.97;;;7.30;;
36747;SDS011;22716;51.556;5.080;2023-05-07T02:46:18;13.23;;;7.93;;
36747;SDS011;22716;51.556;5.080;2023-05-07T02:48:47;8.77;;;7.80;;
36747;SDS011;22716;51.556;5.080;2023-05-07T02:51:19;10.03;;;7.47;;
36747;SDS011;22716;51.556;5.080;2023-05-07T02:53:49;8.13;;;6.40;;
36747;SDS011;22716;51.556;5.080;2023-05-07T02:56:18;9.37;;;7.60;;
36747;SDS011;22716;51.556;5.080;2023-05-07T02:58:49;11.40;;;8.93;;
36747;SDS011;22716;51.556;5.080;2023-05-07T03:01:18;11.00;;;8.53;;
36747;SDS011;22716;51.556;5.080;2023-05-07T03:03:48;9.40;;;7.40;;
36747;SDS011;22716;51.556;5.080;2023-05-07T03:06:16;10.60;;;9.13;;
36747;SDS011;22716;51.556;5.080;2023-05-07T03:08:45;10.30;;;9.27;;
36747;SDS011;22716;51.556;5.080;2023-05-07T03:11:14;10.17;;;8.90;;
36747;SDS011;22716;51.556;5.080;2023-05-07T03:13:44;10.90;;;8.33;;
36747;SDS011;22716;51.556;5.080;2023-05-07T03:16:18;11.90;;;9.20;;
36747;SDS011;22716;51.556;5.080;2023-05-07T03:18:46;12.17;;;9.90;;
36747;SDS011;22716;51.556;5.080;2023-05-07T03:21:16;10.57;;;8.63;;
36747;SDS011;22716;51.556;5.080;2023-05-07T03:23:44;15.40;;;10.20;;
36747;SDS011;22716;51.556;5.080;2023-05-07T03:26:14;16.43;;;9.70;;
36747;SDS011;22716;51.556;5.080;2023-05-07T03:28:42;13.53;;;10.80;;
36747;SDS011;22716;51.556;5.080;2023-05-07T03:31:12;10.23;;;9.07;;
36747;SDS011;22716;51.556;5.080;2023-05-07T03:33:51;13.93;;;9.47;;
36747;SDS011;22716;51.556;5.080;2023-05-07T03:36:21;13.70;;;9.90;;
36747;SDS011;22716;51.556;5.080;2023-05-07T03:38:51;12.20;;;9.43;;
36747;SDS011;22716;51.556;5.080;2023-05-07T03:41:20;14.70;;;10.80;;
36747;SDS011;22716;51.556;5.080;2023-05-07T03:43:51;16.50;;;11.23;;
36747;SDS011;22716;51.556;5.080;2023-05-07T03:46:19;12.10;;;10.80;;
36747;SDS011;22716;51.556;5.080;2023-05-07T03:48:54;15.40;;;11.33;;
36747;SDS011;22716;51.556;5.080;2023-05-07T03:51:23;11.83;;;10.53;;
36747;SDS011;22716;51.556;5.080;2023-05-07T03:53:53;12.73;;;10.87;;
36747;SDS011;22716;51.556;5.080;2023-05-07T03:56:22;15.30;;;10.93;;
36747;SDS011;22716;51.556;5.080;2023-05-07T03:58:53;15.50;;;12.23;;
36747;SDS011;22716;51.556;5.080;2023-05-07T04:01:22;16.33;;;12.50;;
36747;SDS011;22716;51.556;5.080;2023-05-07T04:03:53;12.50;;;11.00;;
36747;SDS011;22716;51.556;5.080;2023-05-07T04:06:22;17.87;;;11.07;;
36747;SDS011;22716;51.556;5.080;2023-05-07T04:08:51;17.23;;;12.53;;
36747;SDS011;22716;51.556;5.080;2023-05-07T04:11:20;17.67;;;12.93;;
36747;SDS011;22716;51.556;5.080;2023-05-07T04:13:51;12.53;;;11.23;;
36747;SDS011;22716;51.556;5.080;2023-05-07T04:16:20;17.47;;;11.53;;
36747;SDS011;22716;51.556;5.080;2023-05-07T04:18:49;15.10;;;11.90;;
36747;SDS011;22716;51.556;5.080;2023-05-07T04:21:21;20.47;;;14.53;;
36747;SDS011;22716;51.556;5.080;2023-05-07T04:23:51;16.80;;;13.03;;
36747;SDS011;22716;51.556;5.080;2023-05-07T04:26:20;17.97;;;11.97;;
36747;SDS011;22716;51.556;5.080;2023-05-07T04:28:49;14.33;;;11.83;;
36747;SDS011;22716;51.556;5.080;2023-05-07T04:31:19;14.17;;;12.23;;
36747;SDS011;22716;51.556;5.080;2023-05-07T04:33:48;16.27;;;12.83;;
36747;SDS011;22716;51.556;5.080;2023-05-07T04:36:17;15.57;;;12.17;;
36747;SDS011;22716;51.556;5.080;2023-05-07T04:38:49;20.33;;;12.90;;
36747;SDS011;22716;51.556;5.080;2023-05-07T04:41:21;16.63;;;13.77;;
36747;SDS011;22716;51.556;5.080;2023-05-07T04:43:50;14.00;;;12.43;;
36747;SDS011;22716;51.556;5.080;2023-05-07T04:46:20;16.47;;;12.67;;
36747;SDS011;22716;51.556;5.080;2023-05-07T04:48:49;18.07;;;14.07;;
36747;SDS011;22716;51.556;5.080;2023-05-07T04:51:21;17.43;;;14.33;;
36747;SDS011;22716;51.556;5.080;2023-05-07T04:53:50;17.07;;;14.63;;
36747;SDS011;22716;51.556;5.080;2023-05-07T04:56:20;15.87;;;13.10;;
36747;SDS011;22716;51.556;5.080;2023-05-07T04:58:48;15.67;;;13.03;;
36747;SDS011;22716;51.556;5.080;2023-05-07T05:01:18;16.33;;;13.73;;
36747;SDS011;22716;51.556;5.080;2023-05-07T05:03:48;15.23;;;12.80;;
36747;SDS011;22716;51.556;5.080;2023-05-07T05:06:17;15.70;;;13.23;;
36747;SDS011;22716;51.556;5.080;2023-05-07T05:08:48;15.30;;;13.17;;
36747;SDS011;22716;51.556;5.080;2023-05-07T05:11:17;18.17;;;13.40;;
36747;SDS011;22716;51.556;5.080;2023-05-07T05:13:46;14.70;;;13.10;;
36747;SDS011;22716;51.556;5.080;2023-05-07T05:16:15;18.27;;;15.43;;
36747;SDS011;22716;51.556;5.080;2023-05-07T05:18:44;16.13;;;13.13;;
36747;SDS011;22716;51.556;5.080;2023-05-07T05:21:13;13.47;;;11.60;;
36747;SDS011;22716;51.556;5.080;2023-05-07T05:23:43;17.50;;;13.87;;
36747;SDS011;22716;51.556;5.080;2023-05-07T05:26:15;16.43;;;13.67;;
36747;SDS011;22716;51.556;5.080;2023-05-07T05:28:44;20.10;;;15.10;;
36747;SDS011;22716;51.556;5.080;2023-05-07T05:31:13;16.00;;;13.63;;
36747;SDS011;22716;51.556;5.080;2023-05-07T05:33:42;18.67;;;14.33;;
36747;SDS011;22716;51.556;5.080;2023-05-07T05:36:11;19.83;;;15.53;;
36747;SDS011;22716;51.556;5.080;2023-05-07T05:38:40;17.90;;;14.53;;
36747;SDS011;22716;51.556;5.080;2023-05-07T05:41:10;16.53;;;14.60;;
36747;SDS011;22716;51.556;5.080;2023-05-07T05:43:41;17.97;;;13.57;;
36747;SDS011;22716;51.556;5.080;2023-05-07T05:46:10;17.23;;;13.00;;
36747;SDS011;22716;51.556;5.080;2023-05-07T05:48:39;17.00;;;14.17;;
36747;SDS011;22716;51.556;5.080;2023-05-07T05:51:08;17.73;;;13.40;;
36747;SDS011;22716;51.556;5.080;2023-05-07T05:53:36;18.07;;;15.13;;
36747;SDS011;22716;51.556;5.080;2023-05-07T05:56:06;19.20;;;15.97;;
36747;SDS011;22716;51.556;5.080;2023-05-07T05:58:35;19.07;;;16.07;;
36747;SDS011;22716;51.556;5.080;2023-05-07T06:01:06;18.60;;;15.17;;
36747;SDS011;22716;51.556;5.080;2023-05-07T06:03:36;18.83;;;14.43;;
36747;SDS011;22716;51.556;5.080;2023-05-07T06:06:05;18.17;;;14.63;;
36747;SDS011;22716;51.556;5.080;2023-05-07T06:08:35;19.40;;;14.93;;
36747;SDS011;22716;51.556;5.080;2023-05-07T06:11:04;18.53;;;16.63;;
36747;SDS011;22716;51.556;5.080;2023-05-07T06:13:33;18.13;;;15.97;;
36747;SDS011;22716;51.556;5.080;2023-05-07T06:16:02;17.57;;;15.37;;
36747;SDS011;22716;51.556;5.080;2023-05-07T06:18:34;22.13;;;17.07;;
36747;SDS011;22716;51.556;5.080;2023-05-07T06:21:03;20.83;;;15.17;;
36747;SDS011;22716;51.556;5.080;2023-05-07T06:23:32;21.57;;;16.23;;
36747;SDS011;22716;51.556;5.080;2023-05-07T06:26:02;21.50;;;15.77;;
36747;SDS011;22716;51.556;5.080;2023-05-07T06:28:32;18.20;;;16.00;;
36747;SDS011;22716;51.556;5.080;2023-05-07T06:31:11;18.63;;;16.47;;
36747;SDS011;22716;51.556;5.080;2023-05-07T06:33:44;21.90;;;17.33;;
36747;SDS011;22716;51.556;5.080;2023-05-07T06:36:13;18.70;;;16.67;;
36747;SDS011;22716;51.556;5.080;2023-05-07T06:38:42;20.97;;;16.43;;
36747;SDS011;22716;51.556;5.080;2023-05-07T06:41:10;19.50;;;16.77;;
36747;SDS011;22716;51.556;5.080;2023-05-07T06:43:39;18.53;;;16.23;;
36747;SDS011;22716;51.556;5.080;2023-05-07T06:46:09;20.23;;;17.03;;
36747;SDS011;22716;51.556;5.080;2023-05-07T06:48:38;17.90;;;16.10;;
36747;SDS011;22716;51.556;5.080;2023-05-07T06:51:10;17.10;;;14.57;;
36747;SDS011;22716;51.556;5.080;2023-05-07T06:53:39;23.63;;;19.53;;
36747;SDS011;22716;51.556;5.080;2023-05-07T06:56:08;20.53;;;17.53;;
36747;SDS011;22716;51.556;5.080;2023-05-07T06:58:37;24.33;;;17.47;;
36747;SDS011;22716;51.556;5.080;2023-05-07T07:01:06;21.37;;;16.73;;
36747;SDS011;22716;51.556;5.080;2023-05-07T07:03:36;22.70;;;17.40;;
36747;SDS011;22716;51.556;5.080;2023-05-07T07:06:04;18.03;;;15.73;;
36747;SDS011;22716;51.556;5.080;2023-05-07T07:08:37;19.20;;;17.03;;
36747;SDS011;22716;51.556;5.080;2023-05-07T07:11:06;23.43;;;17.57;;
36747;SDS011;22716;51.556;5.080;2023-05-07T07:13:36;20.10;;;16.93;;
36747;SDS011;22716;51.556;5.080;2023-05-07T07:16:06;18.80;;;16.53;;
36747;SDS011;22716;51.556;5.080;2023-05-07T07:18:35;21.23;;;16.10;;
36747;SDS011;22716;51.556;5.080;2023-05-07T07:21:05;20.40;;;16.80;;
36747;SDS011;22716;51.556;5.080;2023-05-07T07:23:34;20.30;;;18.13;;
36747;SDS011;22716;51.556;5.080;2023-05-07T07:26:05;22.57;;;19.27;;
36747;SDS011;22716;51.556;5.080;2023-05-07T07:28:34;18.90;;;16.90;;
36747;SDS011;22716;51.556;5.080;2023-05-07T07:31:03;22.10;;;18.13;;
36747;SDS011;22716;51.556;5.080;2023-05-07T07:33:32;20.80;;;17.50;;
36747;SDS011;22716;51.556;5.080;2023-05-07T07:36:01;32.63;;;17.90;;
36747;SDS011;22716;51.556;5.080;2023-05-07T07:38:30;20.10;;;16.00;;
36747;SDS011;22716;51.556;5.080;2023-05-07T07:41:02;19.40;;;16.83;;
36747;SDS011;22716;51.556;5.080;2023-05-07T07:43:31;17.37;;;14.90;;
36747;SDS011;22716;51.556;5.080;2023-05-07T07:46:01;17.93;;;15.93;;
36747;SDS011;22716;51.556;5.080;2023-05-07T07:48:30;18.07;;;16.20;;
36747;SDS011;22716;51.556;5.080;2023-05-07T07:50:59;19.50;;;14.33;;
36747;SDS011;22716;51.556;5.080;2023-05-07T07:53:28;19.20;;;16.77;;
36747;SDS011;22716;51.556;5.080;2023-05-07T07:55:58;20.70;;;15.27;;
36747;SDS011;22716;51.556;5.080;2023-05-07T07:58:30;18.17;;;15.63;;
36747;SDS011;22716;51.556;5.080;2023-05-07T08:01:01;20.27;;;16.13;;
36747;SDS011;22716;51.556;5.080;2023-05-07T08:03:30;18.57;;;15.40;;
36747;SDS011;22716;51.556;5.080;2023-05-07T08:06:00;17.70;;;15.80;;
36747;SDS011;22716;51.556;5.080;2023-05-07T08:08:29;18.70;;;16.33;;
36747;SDS011;22716;51.556;5.080;2023-05-07T08:11:01;16.93;;;15.07;;
36747;SDS011;22716;51.556;5.080;2023-05-07T08:13:30;17.23;;;15.37;;
36747;SDS011;22716;51.556;5.080;2023-05-07T08:15:59;18.40;;;15.40;;
36747;SDS011;22716;51.556;5.080;2023-05-07T08:18:28;20.23;;;17.37;;
36747;SDS011;22716;51.556;5.080;2023-05-07T08:20:57;17.47;;;15.57;;
36747;SDS011;22716;51.556;5.080;2023-05-07T08:23:26;18.40;;;16.00;;
36747;SDS011;22716;51.556;5.080;2023-05-07T08:25:55;20.57;;;15.27;;
36747;SDS011;22716;51.556;5.080;2023-05-07T08:28:27;18.60;;;16.60;;
36747;SDS011;22716;51.556;5.080;2023-05-07T08:30:57;16.67;;;14.00;;
36747;SDS011;22716;51.556;5.080;2023-05-07T08:33:26;17.93;;;15.27;;
36747;SDS011;22716;51.556;5.080;2023-05-07T08:35:55;15.80;;;14.20;;
36747;SDS011;22716;51.556;5.080;2023-05-07T08:38:24;17.80;;;15.40;;
36747;SDS011;22716;51.556;5.080;2023-05-07T08:40:53;17.70;;;15.90;;
36747;SDS011;22716;51.556;5.080;2023-05-07T08:43:22;18.17;;;15.53;;
36747;SDS011;22716;51.556;5.080;2023-05-07T08:45:56;17.40;;;15.20;;
36747;SDS011;22716;51.556;5.080;2023-05-07T08:48:29;22.00;;;17.10;;
36747;SDS011;22716;51.556;5.080;2023-05-07T08:51:00;18.03;;;16.13;;
36747;SDS011;22716;51.556;5.080;2023-05-07T08:53:30;16.57;;;14.40;;
36747;SDS011;22716;51.556;5.080;2023-05-07T08:55:59;17.23;;;15.43;;
36747;SDS011;22716;51.556;5.080;2023-05-07T08:58:32;20.70;;;15.37;;
36747;SDS011;22716;51.556;5.080;2023-05-07T09:01:01;17.37;;;15.00;;
36747;SDS011;22716;51.556;5.080;2023-05-07T09:03:35;18.23;;;15.83;;
36747;SDS011;22716;51.556;5.080;2023-05-07T09:06:06;18.30;;;15.87;;
36747;SDS011;22716;51.556;5.080;2023-05-07T09:08:35;16.83;;;14.17;;
36747;SDS011;22716;51.556;5.080;2023-05-07T09:11:12;17.53;;;14.17;;
36747;SDS011;22716;51.556;5.080;2023-05-07T09:13:45;18.23;;;13.87;;
36747;SDS011;22716;51.556;5.080;2023-05-07T09:16:14;18.37;;;15.13;;
36747;SDS011;22716;51.556;5.080;2023-05-07T09:18:44;16.38;;;13.10;;
36747;SDS011;22716;51.556;5.080;2023-05-07T09:21:14;15.97;;;13.87;;
36747;SDS011;22716;51.556;5.080;2023-05-07T09:23:44;16.37;;;14.67;;
36747;SDS011;22716;51.556;5.080;2023-05-07T09:26:14;15.00;;;13.50;;
36747;SDS011;22716;51.556;5.080;2023-05-07T09:28:46;17.17;;;14.50;;
36747;SDS011;22716;51.556;5.080;2023-05-07T09:31:15;15.43;;;13.77;;
36747;SDS011;22716;51.556;5.080;2023-05-07T09:33:44;16.70;;;14.87;;
36747;SDS011;22716;51.556;5.080;2023-05-07T09:36:13;17.93;;;15.90;;
36747;SDS011;22716;51.556;5.080;2023-05-07T09:38:44;16.86;;;15.16;;
36747;SDS011;22716;51.556;5.080;2023-05-07T09:41:14;15.57;;;14.03;;
36747;SDS011;22716;51.556;5.080;2023-05-07T09:43:46;16.17;;;14.47;;
36747;SDS011;22716;51.556;5.080;2023-05-07T09:46:23;16.23;;;13.93;;
36747;SDS011;22716;51.556;5.080;2023-05-07T09:48:56;24.02;;;14.90;;
36747;SDS011;22716;51.556;5.080;2023-05-07T09:51:28;16.30;;;14.37;;
36747;SDS011;22716;51.556;5.080;2023-05-07T09:53:58;16.20;;;14.50;;
36747;SDS011;22716;51.556;5.080;2023-05-07T09:56:29;15.15;;;13.63;;
36747;SDS011;22716;51.556;5.080;2023-05-07T09:59:01;16.67;;;12.70;;
36747;SDS011;22716;51.556;5.080;2023-05-07T10:01:31;18.00;;;14.57;;
36747;SDS011;22716;51.556;5.080;2023-05-07T10:04:04;17.20;;;15.00;;
36747;SDS011;22716;51.556;5.080;2023-05-07T10:06:35;16.13;;;13.77;;
36747;SDS011;22716;51.556;5.080;2023-05-07T10:09:04;17.83;;;14.13;;
36747;SDS011;22716;51.556;5.080;2023-05-07T10:11:34;17.63;;;14.27;;
36747;SDS011;22716;51.556;5.080;2023-05-07T10:14:06;15.88;;;14.27;;
36747;SDS011;22716;51.556;5.080;2023-05-07T10:16:36;16.23;;;13.90;;
36747;SDS011;22716;51.556;5.080;2023-05-07T10:19:05;17.90;;;15.67;;
36747;SDS011;22716;51.556;5.080;2023-05-07T10:21:36;16.93;;;13.67;;
36747;SDS011;22716;51.556;5.080;2023-05-07T10:24:09;14.98;;;13.55;;
36747;SDS011;22716;51.556;5.080;2023-05-07T10:26:44;14.27;;;12.88;;
36747;SDS011;22716;51.556;5.080;2023-05-07T10:29:21;15.37;;;11.27;;
36747;SDS011;22716;51.556;5.080;2023-05-07T10:31:59;15.87;;;10.87;;
36747;SDS011;22716;51.556;5.080;2023-05-07T10:34:44;14.93;;;11.23;;
36747;SDS011;22716;51.556;5.080;2023-05-07T10:37:16;14.60;;;12.07;;
36747;SDS011;22716;51.556;5.080;2023-05-07T10:39:46;11.27;;;9.30;;
36747;SDS011;22716;51.556;5.080;2023-05-07T10:42:16;11.67;;;8.53;;
36747;SDS011;22716;51.556;5.080;2023-05-07T10:44:47;12.65;;;10.15;;
36747;SDS011;22716;51.556;5.080;2023-05-07T10:47:17;11.70;;;10.57;;
36747;SDS011;22716;51.556;5.080;2023-05-07T10:53:21;10.33;;;8.67;;
36747;SDS011;22716;51.556;5.080;2023-05-07T11:02:00;9.23;;;8.23;;
36747;SDS011;22716;51.556;5.080;2023-05-07T11:04:32;10.25;;;7.30;;
36747;SDS011;22716;51.556;5.080;2023-05-07T11:09:56;9.32;;;8.40;;
36747;SDS011;22716;51.556;5.080;2023-05-07T11:15:38;8.13;;;7.33;;
36747;SDS011;22716;51.556;5.080;2023-05-07T11:18:14;12.27;;;6.70;;
36747;SDS011;22716;51.556;5.080;2023-05-07T11:20:45;7.72;;;6.93;;
36747;SDS011;22716;51.556;5.080;2023-05-07T11:26:16;8.10;;;7.17;;
36747;SDS011;22716;51.556;5.080;2023-05-07T11:28:46;7.60;;;6.67;;
36747;SDS011;22716;51.556;5.080;2023-05-07T11:31:19;6.60;;;5.47;;
36747;SDS011;22716;51.556;5.080;2023-05-07T11:33:54;7.97;;;6.68;;
36747;SDS011;22716;51.556;5.080;2023-05-07T11:36:23;7.83;;;6.40;;
36747;SDS011;22716;51.556;5.080;2023-05-07T11:38:53;14.60;;;7.80;;
36747;SDS011;22716;51.556;5.080;2023-05-07T11:41:22;11.43;;;9.10;;
36747;SDS011;22716;51.556;5.080;2023-05-07T11:44:01;8.43;;;7.40;;
36747;SDS011;22716;51.556;5.080;2023-05-07T11:46:31;10.00;;;7.13;;
36747;SDS011;22716;51.556;5.080;2023-05-07T11:49:04;8.10;;;7.30;;
36747;SDS011;22716;51.556;5.080;2023-05-07T11:51:33;9.18;;;6.78;;
36747;SDS011;22716;51.556;5.080;2023-05-07T11:54:03;8.38;;;7.50;;
36747;SDS011;22716;51.556;5.080;2023-05-07T11:56:34;16.55;;;10.30;;
36747;SDS011;22716;51.556;5.080;2023-05-07T11:59:03;13.00;;;8.60;;
36747;SDS011;22716;51.556;5.080;2023-05-07T12:01:34;14.93;;;9.18;;
36747;SDS011;22716;51.556;5.080;2023-05-07T12:04:07;10.32;;;7.93;;
36747;SDS011;22716;51.556;5.080;2023-05-07T12:06:36;8.85;;;7.70;;
36747;SDS011;22716;51.556;5.080;2023-05-07T12:09:06;10.43;;;7.95;;
36747;SDS011;22716;51.556;5.080;2023-05-07T12:11:37;9.52;;;7.97;;
36747;SDS011;22716;51.556;5.080;2023-05-07T12:14:07;9.85;;;7.97;;
36747;SDS011;22716;51.556;5.080;2023-05-07T12:16:37;8.50;;;7.60;;
36747;SDS011;22716;51.556;5.080;2023-05-07T12:19:10;12.32;;;7.78;;
36747;SDS011;22716;51.556;5.080;2023-05-07T12:21:40;10.32;;;8.48;;
36747;SDS011;22716;51.556;5.080;2023-05-07T12:24:09;8.33;;;7.47;;
36747;SDS011;22716;51.556;5.080;2023-05-07T12:26:38;10.35;;;7.07;;
36747;SDS011;22716;51.556;5.080;2023-05-07T12:29:08;9.50;;;7.40;;
36747;SDS011;22716;51.556;5.080;2023-05-07T12:31:40;8.38;;;7.53;;
36747;SDS011;22716;51.556;5.080;2023-05-07T12:34:13;10.00;;;7.53;;
36747;SDS011;22716;51.556;5.080;2023-05-07T12:36:42;8.82;;;6.47;;
36747;SDS011;22716;51.556;5.080;2023-05-07T12:39:11;7.75;;;5.07;;
36747;SDS011;22716;51.556;5.080;2023-05-07T12:41:52;7.00;;;5.45;;
36747;SDS011;22716;51.556;5.080;2023-05-07T12:44:22;11.18;;;6.28;;
36747;SDS011;22716;51.556;5.080;2023-05-07T12:46:52;8.63;;;7.53;;
36747;SDS011;22716;51.556;5.080;2023-05-07T12:49:24;7.85;;;6.68;;
36747;SDS011;22716;51.556;5.080;2023-05-07T12:51:53;11.27;;;6.67;;
36747;SDS011;22716;51.556;5.080;2023-05-07T12:54:30;9.73;;;7.35;;
36747;SDS011;22716;51.556;5.080;2023-05-07T12:57:00;9.95;;;7.63;;
36747;SDS011;22716;51.556;5.080;2023-05-07T12:59:31;7.82;;;6.60;;
36747;SDS011;22716;51.556;5.080;2023-05-07T13:02:02;10.77;;;6.75;;
36747;SDS011;22716;51.556;5.080;2023-05-07T13:04:34;14.43;;;7.80;;
36747;SDS011;22716;51.556;5.080;2023-05-07T13:07:04;14.43;;;9.55;;
36747;SDS011;22716;51.556;5.080;2023-05-07T13:09:33;15.02;;;10.30;;
36747;SDS011;22716;51.556;5.080;2023-05-07T13:12:03;20.85;;;13.13;;
36747;SDS011;22716;51.556;5.080;2023-05-07T13:14:32;20.05;;;13.15;;
36747;SDS011;22716;51.556;5.080;2023-05-07T13:17:01;16.25;;;9.65;;
36747;SDS011;22716;51.556;5.080;2023-05-07T13:19:30;12.40;;;8.23;;
36747;SDS011;22716;51.556;5.080;2023-05-07T13:22:02;12.47;;;8.57;;
36747;SDS011;22716;51.556;5.080;2023-05-07T13:24:31;12.35;;;8.50;;
36747;SDS011;22716;51.556;5.080;2023-05-07T13:27:00;18.40;;;11.40;;
36747;SDS011;22716;51.556;5.080;2023-05-07T13:29:29;19.03;;;11.40;;
36747;SDS011;22716;51.556;5.080;2023-05-07T13:31:59;12.77;;;10.47;;
36747;SDS011;22716;51.556;5.080;2023-05-07T13:34:28;13.27;;;10.30;;
36747;SDS011;22716;51.556;5.080;2023-05-07T13:36:57;15.77;;;9.15;;
36747;SDS011;22716;51.556;5.080;2023-05-07T13:39:29;12.75;;;10.25;;
36747;SDS011;22716;51.556;5.080;2023-05-07T13:41:59;16.58;;;10.65;;
36747;SDS011;22716;51.556;5.080;2023-05-07T13:44:28;10.40;;;9.30;;
36747;SDS011;22716;51.556;5.080;2023-05-07T13:46:57;13.38;;;10.10;;
36747;SDS011;22716;51.556;5.080;2023-05-07T13:49:26;18.47;;;12.20;;
36747;SDS011;22716;51.556;5.080;2023-05-07T13:51:56;18.77;;;13.00;;
36747;SDS011;22716;51.556;5.080;2023-05-07T13:54:25;18.42;;;15.43;;
36747;SDS011;22716;51.556;5.080;2023-05-07T13:56:56;18.80;;;13.45;;
36747;SDS011;22716;51.556;5.080;2023-05-07T13:59:25;13.27;;;9.20;;
36747;SDS011;22716;51.556;5.080;2023-05-07T14:01:58;14.47;;;10.77;;
36747;SDS011;22716;51.556;5.080;2023-05-07T14:04:26;13.50;;;10.25;;
36747;SDS011;22716;51.556;5.080;2023-05-07T14:06:56;18.92;;;11.60;;
36747;SDS011;22716;51.556;5.080;2023-05-07T14:09:25;14.00;;;12.27;;
36747;SDS011;22716;51.556;5.080;2023-05-07T14:11:58;11.98;;;10.05;;
36747;SDS011;22716;51.556;5.080;2023-05-07T14:14:27;13.27;;;10.43;;
36747;SDS011;22716;51.556;5.080;2023-05-07T14:16:56;14.40;;;10.38;;
36747;SDS011;22716;51.556;5.080;2023-05-07T14:19:26;16.58;;;11.43;;
36747;SDS011;22716;51.556;5.080;2023-05-07T14:21:56;11.70;;;9.17;;
36747;SDS011;22716;51.556;5.080;2023-05-07T14:24:25;15.63;;;8.43;;
36747;SDS011;22716;51.556;5.080;2023-05-07T14:26:59;14.00;;;9.87;;
36747;SDS011;22716;51.556;5.080;2023-05-07T14:29:28;19.02;;;12.50;;
36747;SDS011;22716;51.556;5.080;2023-05-07T14:31:57;16.97;;;11.97;;
36747;SDS011;22716;51.556;5.080;2023-05-07T14:34:26;31.83;;;22.00;;
36747;SDS011;22716;51.556;5.080;2023-05-07T14:36:55;10.73;;;8.88;;
36747;SDS011;22716;51.556;5.080;2023-05-07T14:39:24;15.30;;;10.40;;
36747;SDS011;22716;51.556;5.080;2023-05-07T14:41:53;12.00;;;10.37;;
36747;SDS011;22716;51.556;5.080;2023-05-07T14:44:25;14.33;;;9.33;;
36747;SDS011;22716;51.556;5.080;2023-05-07T14:46:53;17.33;;;12.63;;
36747;SDS011;22716;51.556;5.080;2023-05-07T14:49:22;11.80;;;8.60;;
36747;SDS011;22716;51.556;5.080;2023-05-07T14:51:51;12.93;;;8.40;;
36747;SDS011;22716;51.556;5.080;2023-05-07T14:54:21;18.17;;;9.43;;
36747;SDS011;22716;51.556;5.080;2023-05-07T14:56:50;13.55;;;6.70;;
36747;SDS011;22716;51.556;5.080;2023-05-07T14:59:19;12.15;;;6.95;;
36747;SDS011;22716;51.556;5.080;2023-05-07T15:01:53;10.25;;;5.90;;
36747;SDS011;22716;51.556;5.080;2023-05-07T15:04:22;9.57;;;6.18;;
36747;SDS011;22716;51.556;5.080;2023-05-07T15:06:52;10.15;;;6.15;;